createdAt,value
2022-12-01T00:01:07.210Z,4.80
2022-12-01T00:03:35.573Z,4.50
2022-12-01T00:06:13.461Z,4.13
2022-12-01T00:08:40.938Z,3.77
2022-12-01T00:11:10.141Z,4.40
2022-12-01T00:13:37.921Z,3.87
2022-12-01T00:16:12.518Z,5.23
2022-12-01T00:18:40.004Z,4.43
2022-12-01T00:21:07.441Z,4.00
2022-12-01T00:23:34.797Z,3.30
2022-12-01T00:26:05.888Z,4.10
2022-12-01T00:28:33.299Z,4.47
2022-12-01T00:31:00.640Z,5.00
2022-12-01T00:33:28.126Z,3.57
2022-12-01T00:35:59.660Z,4.73
2022-12-01T00:38:27.325Z,4.00
2022-12-01T00:40:54.617Z,3.73
2022-12-01T00:43:22.237Z,4.17
2022-12-01T00:45:49.551Z,4.13
2022-12-01T00:48:16.989Z,4.27
2022-12-01T00:50:44.568Z,3.70
2022-12-01T00:53:11.940Z,5.23
2022-12-01T00:55:40.330Z,4.50
2022-12-01T00:58:07.872Z,3.40
2022-12-01T01:00:38.710Z,4.37
2022-12-01T01:03:07.682Z,4.07
2022-12-01T01:05:38.759Z,5.10
2022-12-01T01:08:10.113Z,4.47
2022-12-01T01:10:41.362Z,4.43
2022-12-01T01:13:08.894Z,4.30
2022-12-01T01:15:36.645Z,4.13
2022-12-01T01:18:04.432Z,3.70
2022-12-01T01:20:32.225Z,4.27
2022-12-01T01:23:00.007Z,4.30
2022-12-01T01:25:27.503Z,3.63
2022-12-01T01:27:54.913Z,4.37
2022-12-01T01:30:22.358Z,3.97
2022-12-01T01:32:49.659Z,4.83
2022-12-01T01:35:17.059Z,4.07
2022-12-01T01:37:44.581Z,4.63
2022-12-01T01:40:12.186Z,4.10
2022-12-01T01:42:39.504Z,4.03
2022-12-01T01:45:17.375Z,3.57
2022-12-01T01:47:45.075Z,3.70
2022-12-01T01:50:15.912Z,4.03
2022-12-01T01:52:45.966Z,3.73
2022-12-01T01:55:14.331Z,4.87
2022-12-01T01:57:42.774Z,5.47
2022-12-01T02:00:16.960Z,3.97
2022-12-01T02:02:45.804Z,4.30
2022-12-01T02:05:28.366Z,4.00
2022-12-01T02:08:00.078Z,4.00
2022-12-01T02:10:46.297Z,4.03
2022-12-01T02:13:23.012Z,4.63
2022-12-01T02:15:53.322Z,4.80
2022-12-01T02:18:30.968Z,4.77
2022-12-01T02:21:17.384Z,4.57
2022-12-01T02:24:08.123Z,4.27
2022-12-01T02:26:54.239Z,4.23
2022-12-01T02:29:40.652Z,4.53
2022-12-01T02:32:14.398Z,4.07
2022-12-01T02:34:45.520Z,3.67
2022-12-01T02:37:29.481Z,4.67
2022-12-01T02:40:03.488Z,4.70
2022-12-01T02:42:49.835Z,3.40
2022-12-01T02:45:29.689Z,4.07
2022-12-01T02:48:00.832Z,4.03
2022-12-01T02:50:29.182Z,3.83
2022-12-01T02:52:56.600Z,3.90
2022-12-01T02:55:23.904Z,3.77
2022-12-01T02:57:51.243Z,4.40
2022-12-01T03:00:18.818Z,4.10
2022-12-01T03:02:54.959Z,4.13
2022-12-01T03:05:29.711Z,3.33
2022-12-01T03:08:13.810Z,4.00
2022-12-01T03:10:41.124Z,3.87
2022-12-01T03:13:15.638Z,3.17
2022-12-01T03:15:52.164Z,3.20
2022-12-01T03:18:33.776Z,3.57
2022-12-01T03:21:10.292Z,3.60
2022-12-01T03:23:43.225Z,3.13
2022-12-01T03:26:12.453Z,2.80
2022-12-01T03:28:41.834Z,3.67
2022-12-01T03:31:12.865Z,3.90
2022-12-01T03:33:44.086Z,3.67
2022-12-01T03:36:15.301Z,3.43
2022-12-01T03:38:45.651Z,3.87
2022-12-01T03:41:15.881Z,3.37
2022-12-01T03:43:45.791Z,4.40
2022-12-01T03:46:19.827Z,4.40
2022-12-01T03:48:47.326Z,3.87
2022-12-01T03:51:24.024Z,4.17
2022-12-01T03:54:00.663Z,3.93
2022-12-01T03:56:30.930Z,3.53
2022-12-01T03:58:59.865Z,4.87
2022-12-01T04:01:32.736Z,4.20
2022-12-01T04:04:11.843Z,3.70
2022-12-01T04:06:41.198Z,5.07
2022-12-01T04:09:08.563Z,4.03
2022-12-01T04:11:54.622Z,3.67
2022-12-01T04:14:22.053Z,4.33
2022-12-01T04:16:49.533Z,4.30
2022-12-01T04:19:16.942Z,4.63
2022-12-01T04:21:44.278Z,4.07
2022-12-01T04:24:12.862Z,4.03
2022-12-01T04:26:40.278Z,3.20
2022-12-01T04:29:08.586Z,3.00
2022-12-01T04:31:36.254Z,3.10
2022-12-01T04:34:04.125Z,4.53
2022-12-01T04:36:32.851Z,3.87
2022-12-01T04:39:00.540Z,4.57
2022-12-01T04:41:27.858Z,4.53
2022-12-01T04:43:55.757Z,3.77
2022-12-01T04:46:24.086Z,3.77
2022-12-01T04:48:51.450Z,3.50
2022-12-01T04:51:19.215Z,4.03
2022-12-01T04:53:46.503Z,3.13
2022-12-01T04:56:13.924Z,4.27
2022-12-01T04:58:41.312Z,3.90
2022-12-01T05:01:15.609Z,4.40
2022-12-01T05:03:44.639Z,4.57
2022-12-01T05:06:13.702Z,4.53
2022-12-01T05:08:41.213Z,3.47
2022-12-01T05:11:10.160Z,3.00
2022-12-01T05:13:39.510Z,3.37
2022-12-01T05:16:11.524Z,5.13
2022-12-01T05:18:39.205Z,5.00
2022-12-01T05:21:07.802Z,3.63
2022-12-01T05:23:35.911Z,4.73
2022-12-01T05:26:04.054Z,3.23
2022-12-01T05:28:31.362Z,3.60
2022-12-01T05:30:59.228Z,3.20
2022-12-01T05:33:29.068Z,4.77
2022-12-01T05:35:56.988Z,3.77
2022-12-01T05:38:24.439Z,4.43
2022-12-01T05:40:52.506Z,4.00
2022-12-01T05:43:25.244Z,4.30
2022-12-01T05:45:55.930Z,4.10
2022-12-01T05:48:23.348Z,3.77
2022-12-01T05:50:50.769Z,4.37
2022-12-01T05:53:18.927Z,4.37
2022-12-01T05:55:46.423Z,3.03
2022-12-01T05:58:13.737Z,4.00
2022-12-01T06:00:45.646Z,4.33
2022-12-01T06:03:13.841Z,4.20
2022-12-01T06:05:41.460Z,3.93
2022-12-01T06:08:09.061Z,4.57
2022-12-01T06:10:36.374Z,4.53
2022-12-01T06:13:03.699Z,4.83
2022-12-01T06:15:31.058Z,3.77
2022-12-01T06:18:01.764Z,4.97
2022-12-01T06:20:29.242Z,4.40
2022-12-01T06:22:56.593Z,3.10
2022-12-01T06:25:23.932Z,4.93
2022-12-01T06:27:51.304Z,4.43
2022-12-01T06:30:18.798Z,5.07
2022-12-01T06:32:46.212Z,4.17
2022-12-01T06:35:13.515Z,4.17
2022-12-01T06:37:40.810Z,4.30
2022-12-01T06:40:08.505Z,4.20
2022-12-01T06:42:35.954Z,4.30
2022-12-01T06:45:03.340Z,4.57
2022-12-01T06:47:30.883Z,4.03
2022-12-01T06:49:58.404Z,5.63
2022-12-01T06:52:25.916Z,4.03
2022-12-01T06:54:53.228Z,3.97
2022-12-01T06:57:20.933Z,3.77
2022-12-01T06:59:48.949Z,5.43
2022-12-01T07:02:17.029Z,3.90
2022-12-01T07:04:44.485Z,4.33
2022-12-01T07:07:12.275Z,4.77
2022-12-01T07:09:39.921Z,4.70
2022-12-01T07:12:07.473Z,5.57
2022-12-01T07:14:35.648Z,3.73
2022-12-01T07:17:02.994Z,4.13
2022-12-01T07:19:30.411Z,4.17
2022-12-01T07:21:57.958Z,5.60
2022-12-01T07:24:25.313Z,4.03
2022-12-01T07:26:52.655Z,4.40
2022-12-01T07:29:20.097Z,4.97
2022-12-01T07:31:47.486Z,4.23
2022-12-01T07:34:14.879Z,4.77
2022-12-01T07:36:42.352Z,4.80
2022-12-01T07:39:09.863Z,4.43
2022-12-01T07:41:37.180Z,3.87
2022-12-01T07:44:04.586Z,4.43
2022-12-01T07:46:31.987Z,4.77
2022-12-01T07:48:59.581Z,3.00
2022-12-01T07:51:27.534Z,5.37
2022-12-01T07:53:55.074Z,4.40
2022-12-01T07:56:23.169Z,5.10
2022-12-01T07:58:50.526Z,5.37
2022-12-01T08:01:22.333Z,4.03
2022-12-01T08:03:50.904Z,4.57
2022-12-01T08:06:18.551Z,5.03
2022-12-01T08:08:46.007Z,5.07
2022-12-01T08:11:24.083Z,3.83
2022-12-01T08:13:51.676Z,4.43
2022-12-01T08:16:20.046Z,3.83
2022-12-01T08:18:47.366Z,5.17
2022-12-01T08:21:16.661Z,4.17
2022-12-01T08:23:44.214Z,4.37
2022-12-01T08:26:13.906Z,3.60
2022-12-01T08:28:41.414Z,4.33
2022-12-01T08:31:10.091Z,4.30
2022-12-01T08:33:37.566Z,3.63
2022-12-01T08:36:05.709Z,4.07
2022-12-01T08:38:33.842Z,3.63
2022-12-01T08:41:02.062Z,4.00
2022-12-01T08:43:55.862Z,5.10
2022-12-01T08:46:17.202Z,5.37
2022-12-01T08:48:44.748Z,4.30
2022-12-01T08:51:13.457Z,4.93
2022-12-01T08:53:45.427Z,5.33
2022-12-01T08:56:21.372Z,5.73
2022-12-01T08:58:48.775Z,4.13
2022-12-01T09:01:16.906Z,5.37
2022-12-01T09:03:44.521Z,3.80
2022-12-01T09:06:16.353Z,3.87
2022-12-01T09:08:43.990Z,5.10
2022-12-01T09:11:12.846Z,4.87
2022-12-01T09:13:40.886Z,4.83
2022-12-01T09:16:09.801Z,3.93
2022-12-01T09:18:37.541Z,4.63
2022-12-01T09:21:27.562Z,3.93
2022-12-01T09:23:55.292Z,5.57
2022-12-01T09:26:23.673Z,5.17
2022-12-01T09:28:53.591Z,4.07
2022-12-01T09:31:23.407Z,3.87
2022-12-01T09:33:58.333Z,4.23
2022-12-01T09:36:26.175Z,4.57
2022-12-01T09:38:53.488Z,4.37
2022-12-01T09:41:27.028Z,5.07
2022-12-01T09:44:26.890Z,4.43
2022-12-01T09:46:57.112Z,5.67
2022-12-01T09:49:36.656Z,5.30
2022-12-01T09:52:03.981Z,4.43
2022-12-01T09:54:31.329Z,4.23
2022-12-01T09:57:00.418Z,4.80
2022-12-01T09:59:31.828Z,4.60
2022-12-01T10:02:01.945Z,4.80
2022-12-01T10:04:35.845Z,4.80
2022-12-01T10:07:05.143Z,4.17
2022-12-01T10:09:45.201Z,4.30
2022-12-01T10:12:17.093Z,3.90
2022-12-01T10:14:48.480Z,3.93
2022-12-01T10:17:21.652Z,4.40
2022-12-01T10:20:07.882Z,3.97
2022-12-01T10:22:50.490Z,5.40
2022-12-01T10:25:25.459Z,5.53
2022-12-01T10:27:55.945Z,5.07
2022-12-01T10:30:24.482Z,4.20
2022-12-01T10:32:55.065Z,5.40
2022-12-01T10:35:24.090Z,4.77
2022-12-01T10:37:54.736Z,4.83
2022-12-01T10:40:22.969Z,5.47
2022-12-01T10:42:50.950Z,5.53
2022-12-01T10:45:26.139Z,4.47
2022-12-01T10:48:15.100Z,5.40
2022-12-01T10:50:43.708Z,5.47
2022-12-01T10:53:23.159Z,5.40
2022-12-01T10:55:51.719Z,4.93
2022-12-01T10:58:19.940Z,4.93
2022-12-01T11:01:09.511Z,4.47
2022-12-01T11:03:37.384Z,5.00
2022-12-01T11:06:06.686Z,5.23
2022-12-01T11:08:41.549Z,4.83
2022-12-01T11:11:25.992Z,4.87
2022-12-01T11:13:54.570Z,4.10
2022-12-01T11:16:40.992Z,4.87
2022-12-01T11:19:27.205Z,5.03
2022-12-01T11:21:56.683Z,4.93
2022-12-01T11:24:28.001Z,5.53
2022-12-01T11:26:56.670Z,4.90
2022-12-01T11:29:50.821Z,4.50
2022-12-01T11:32:26.478Z,4.63
2022-12-01T11:35:12.580Z,3.67
2022-12-01T11:37:50.437Z,5.50
2022-12-01T11:40:29.805Z,3.80
2022-12-01T11:42:58.656Z,4.37
2022-12-01T11:45:32.325Z,4.57
2022-12-01T11:48:00.367Z,4.50
2022-12-01T11:50:29.531Z,3.30
2022-12-01T11:52:56.828Z,4.13
2022-12-01T11:55:25.957Z,5.10
2022-12-01T11:57:55.432Z,4.20
2022-12-01T12:00:24.283Z,4.43
2022-12-01T12:02:57.954Z,3.73
2022-12-01T12:05:37.985Z,3.83
2022-12-01T12:08:22.435Z,3.93
2022-12-01T12:10:50.464Z,3.70
2022-12-01T12:13:30.078Z,4.17
2022-12-01T12:16:03.711Z,3.57
2022-12-01T12:18:42.509Z,3.73
2022-12-01T12:21:22.895Z,3.40
2022-12-01T12:23:53.426Z,4.50
2022-12-01T12:26:25.984Z,3.83
2022-12-01T12:29:00.936Z,3.47
2022-12-01T12:31:31.233Z,4.13
2022-12-01T12:33:58.544Z,4.37
2022-12-01T12:36:43.114Z,3.73
2022-12-01T12:39:27.162Z,3.90
2022-12-01T12:41:55.639Z,4.67
2022-12-01T12:44:36.833Z,3.60
2022-12-01T12:47:13.090Z,3.13
2022-12-01T12:49:44.604Z,3.93
2022-12-01T12:52:20.628Z,4.87
2022-12-01T12:55:08.228Z,3.23
2022-12-01T12:57:45.216Z,4.17
2022-12-01T13:00:21.002Z,3.30
2022-12-01T13:02:55.595Z,3.50
2022-12-01T13:05:36.213Z,3.30
2022-12-01T13:08:06.885Z,3.10
2022-12-01T13:10:43.800Z,3.87
2022-12-01T13:13:17.275Z,3.00
2022-12-01T13:15:47.342Z,4.30
2022-12-01T13:18:26.034Z,3.40
2022-12-01T13:20:54.492Z,3.13
2022-12-01T13:23:22.071Z,2.73
2022-12-01T13:25:51.177Z,3.73
2022-12-01T13:28:23.848Z,3.53
2022-12-01T13:31:02.420Z,3.60
2022-12-01T13:33:30.309Z,2.77
2022-12-01T13:36:23.068Z,2.77
2022-12-01T13:38:53.560Z,2.53
2022-12-01T13:41:26.952Z,2.90
2022-12-01T13:44:02.370Z,2.60
2022-12-01T13:46:45.075Z,3.63
2022-12-01T13:49:33.480Z,2.83
2022-12-01T13:52:17.938Z,4.10
2022-12-01T13:55:04.107Z,2.90
2022-12-01T13:57:33.875Z,2.60
2022-12-01T14:00:01.225Z,2.43
2022-12-01T14:02:29.942Z,3.07
2022-12-01T14:05:17.353Z,5.10
2022-12-01T14:07:44.751Z,2.97
2022-12-01T14:10:26.499Z,3.03
2022-12-01T14:12:55.361Z,3.10
2022-12-01T14:15:28.823Z,3.47
2022-12-01T14:18:01.061Z,3.30
2022-12-01T14:20:28.993Z,3.23
2022-12-01T14:23:13.231Z,2.80
2022-12-01T14:25:41.448Z,2.80
2022-12-01T14:28:17.406Z,2.27
2022-12-01T14:30:45.939Z,2.97
2022-12-01T14:33:32.412Z,2.60
2022-12-01T14:35:59.783Z,3.27
2022-12-01T14:38:28.777Z,3.07
2022-12-01T14:40:56.253Z,3.10
2022-12-01T14:43:46.416Z,3.00
2022-12-01T14:46:15.296Z,2.10
2022-12-01T14:48:43.887Z,3.00
2022-12-01T14:51:23.275Z,2.77
2022-12-01T14:53:53.002Z,2.30
2022-12-01T14:56:23.558Z,2.93
2022-12-01T14:58:53.869Z,2.03
2022-12-01T15:01:22.989Z,2.80
2022-12-01T15:03:58.982Z,2.90
2022-12-01T15:06:27.835Z,2.90
2022-12-01T15:09:32.058Z,3.73
2022-12-01T15:12:03.689Z,3.10
2022-12-01T15:14:32.498Z,2.63
2022-12-01T15:17:00.318Z,3.43
2022-12-01T15:19:32.053Z,3.33
2022-12-01T15:22:00.509Z,2.40
2022-12-01T15:24:31.014Z,2.70
2022-12-01T15:27:03.803Z,2.90
2022-12-01T15:29:50.130Z,2.70
2022-12-01T15:32:18.726Z,3.03
2022-12-01T15:34:47.660Z,4.30
2022-12-01T15:37:16.856Z,2.43
2022-12-01T15:39:51.936Z,2.63
2022-12-01T15:42:23.330Z,2.63
2022-12-01T15:45:01.053Z,2.40
2022-12-01T15:47:35.787Z,2.47
2022-12-01T15:50:03.875Z,2.87
2022-12-01T15:52:31.420Z,2.23
2022-12-01T15:55:02.765Z,2.63
2022-12-01T15:57:30.110Z,2.73
2022-12-01T15:59:58.373Z,2.77
2022-12-01T16:02:28.684Z,2.73
2022-12-01T16:05:04.241Z,2.40
2022-12-01T16:07:57.223Z,2.50
2022-12-01T16:10:27.500Z,3.00
2022-12-01T16:13:14.735Z,2.13
2022-12-01T16:15:45.173Z,2.27
2022-12-01T16:18:31.482Z,2.13
2022-12-01T16:21:05.985Z,2.20
2022-12-01T16:23:33.708Z,2.70
2022-12-01T16:26:02.273Z,5.50
2022-12-01T16:28:35.647Z,4.27
2022-12-01T16:31:10.185Z,3.47
2022-12-01T16:33:40.003Z,3.33
2022-12-01T16:36:07.682Z,4.80
2022-12-01T16:38:35.072Z,3.60
2022-12-01T16:41:02.976Z,3.77
2022-12-01T16:43:30.465Z,4.33
2022-12-01T16:46:03.061Z,3.23
2022-12-01T16:48:31.247Z,3.70
2022-12-01T16:51:02.439Z,3.03
2022-12-01T16:53:29.881Z,3.90
2022-12-01T16:56:02.399Z,3.27
2022-12-01T16:58:29.815Z,2.53
2022-12-01T17:00:57.260Z,2.63
2022-12-01T17:03:26.002Z,3.27
2022-12-01T17:05:53.819Z,3.63
2022-12-01T17:08:21.321Z,3.30
2022-12-01T17:10:50.209Z,3.60
2022-12-01T17:13:24.331Z,3.47
2022-12-01T17:15:52.926Z,2.83
2022-12-01T17:18:21.440Z,4.37
2022-12-01T17:21:02.867Z,3.47
2022-12-01T17:23:32.988Z,2.90
2022-12-01T17:26:01.167Z,3.77
2022-12-01T17:28:28.488Z,3.60
2022-12-01T17:30:59.931Z,2.97
2022-12-01T17:33:27.373Z,3.40
2022-12-01T17:35:54.774Z,3.03
2022-12-01T17:38:22.331Z,3.23
2022-12-01T17:41:00.091Z,3.10
2022-12-01T17:43:27.728Z,2.97
2022-12-01T17:45:55.238Z,2.70
2022-12-01T17:48:22.608Z,3.40
2022-12-01T17:50:50.199Z,2.90
2022-12-01T17:53:17.643Z,3.33
2022-12-01T17:55:44.980Z,3.50
2022-12-01T17:58:12.674Z,3.13
2022-12-01T18:00:40.244Z,2.77
2022-12-01T18:03:08.055Z,2.60
2022-12-01T18:05:35.566Z,2.50
2022-12-01T18:08:02.940Z,3.30
2022-12-01T18:10:30.504Z,3.43
2022-12-01T18:12:57.890Z,3.10
2022-12-01T18:15:28.175Z,3.43
2022-12-01T18:17:57.794Z,3.53
2022-12-01T18:20:25.496Z,2.70
2022-12-01T18:22:57.432Z,3.00
2022-12-01T18:25:24.799Z,3.20
2022-12-01T18:27:58.217Z,2.67
2022-12-01T18:30:25.630Z,2.90
2022-12-01T18:32:53.091Z,2.70
2022-12-01T18:35:20.848Z,3.53
2022-12-01T18:37:48.332Z,2.60
2022-12-01T18:40:16.032Z,2.90
2022-12-01T18:42:43.552Z,2.90
2022-12-01T18:45:11.095Z,3.20
2022-12-01T18:47:38.404Z,3.03
2022-12-01T18:50:06.248Z,3.03
2022-12-01T18:52:36.141Z,2.40
2022-12-01T18:55:03.707Z,2.47
2022-12-01T18:57:31.206Z,3.70
2022-12-01T18:59:58.598Z,2.77
2022-12-01T19:02:26.473Z,2.33
2022-12-01T19:04:53.881Z,2.47
2022-12-01T19:07:28.050Z,3.13
2022-12-01T19:09:57.041Z,2.77
2022-12-01T19:12:25.984Z,2.67
2022-12-01T19:14:54.231Z,2.80
2022-12-01T19:17:22.238Z,2.80
2022-12-01T19:19:49.818Z,3.03
2022-12-01T19:22:18.637Z,2.50
2022-12-01T19:24:50.206Z,3.43
2022-12-01T19:27:21.368Z,3.40
2022-12-01T19:29:51.403Z,3.07
2022-12-01T19:32:19.375Z,2.63
2022-12-01T19:34:46.709Z,2.93
2022-12-01T19:37:14.040Z,2.80
2022-12-01T19:39:41.399Z,2.70
2022-12-01T19:42:11.085Z,3.50
2022-12-01T19:44:38.982Z,2.77
2022-12-01T19:47:09.872Z,3.93
2022-12-01T19:49:37.612Z,2.90
2022-12-01T19:52:07.856Z,3.23
2022-12-01T19:54:37.647Z,3.47
2022-12-01T19:57:05.117Z,2.87
2022-12-01T19:59:32.443Z,4.10
2022-12-01T20:01:59.894Z,3.50
2022-12-01T20:04:27.355Z,4.10
2022-12-01T20:06:54.791Z,2.80
2022-12-01T20:09:22.644Z,3.27
2022-12-01T20:11:49.941Z,3.30
2022-12-01T20:14:17.269Z,3.90
2022-12-01T20:16:44.679Z,2.97
2022-12-01T20:19:12.261Z,2.20
2022-12-01T20:21:43.048Z,2.90
2022-12-01T20:24:12.563Z,3.23
2022-12-01T20:26:41.332Z,3.70
2022-12-01T20:29:10.366Z,3.03
2022-12-01T20:31:38.489Z,3.10
2022-12-01T20:34:08.652Z,3.10
2022-12-01T20:36:36.585Z,2.97
2022-12-01T20:39:05.207Z,3.80
2022-12-01T20:41:32.876Z,3.67
2022-12-01T20:44:06.745Z,3.40
2022-12-01T20:46:35.116Z,3.20
2022-12-01T20:49:03.445Z,3.80
2022-12-01T20:51:33.883Z,3.07
2022-12-01T20:56:49.688Z,2.40
2022-12-01T20:59:17.176Z,2.67
2022-12-01T21:01:44.454Z,2.87
2022-12-01T21:04:11.826Z,3.27
2022-12-01T21:06:39.165Z,3.13
2022-12-01T21:09:07.480Z,2.57
2022-12-01T21:11:56.077Z,3.13
2022-12-01T21:14:33.187Z,3.33
2022-12-01T21:17:03.250Z,2.53
2022-12-01T21:19:49.445Z,3.63
2022-12-01T21:22:16.787Z,2.47
2022-12-01T21:24:46.835Z,3.03
2022-12-01T21:27:16.565Z,3.67
2022-12-01T21:29:48.308Z,3.40
2022-12-01T21:32:19.964Z,3.67
2022-12-01T21:34:48.277Z,2.37
2022-12-01T21:37:23.073Z,2.37
2022-12-01T21:39:51.532Z,3.13
2022-12-01T21:42:23.290Z,3.13
2022-12-01T21:44:51.209Z,3.00
2022-12-01T21:47:23.244Z,3.63
2022-12-01T21:49:54.645Z,2.90
2022-12-01T21:52:34.156Z,2.93
2022-12-01T21:55:02.841Z,3.63
2022-12-01T21:57:38.490Z,3.87
2022-12-01T22:00:34.988Z,3.37
2022-12-01T22:03:05.297Z,2.90
2022-12-01T22:05:39.011Z,2.60
2022-12-01T22:08:17.213Z,2.47
2022-12-01T22:10:52.771Z,2.30
2022-12-01T22:13:22.855Z,3.93
2022-12-01T22:15:50.293Z,3.37
2022-12-01T22:18:23.089Z,3.50
2022-12-01T22:20:50.446Z,3.30
2022-12-01T22:23:19.794Z,2.70
2022-12-01T22:25:48.333Z,2.80
2022-12-01T22:28:20.454Z,3.23
2022-12-01T22:30:48.049Z,3.20
2022-12-01T22:33:20.722Z,2.80
2022-12-01T22:35:49.183Z,2.70
2022-12-01T22:38:28.889Z,3.43
2022-12-01T22:40:58.104Z,3.20
2022-12-01T22:43:29.714Z,3.80
2022-12-01T22:46:17.645Z,2.50
2022-12-01T22:48:46.724Z,3.67
2022-12-01T22:51:14.183Z,3.33
2022-12-01T22:53:42.333Z,3.57
2022-12-01T22:56:18.787Z,3.40
2022-12-01T22:58:46.700Z,4.57
2022-12-01T23:01:23.710Z,3.20
2022-12-01T23:03:51.427Z,3.67
2022-12-01T23:06:45.292Z,3.70
2022-12-01T23:09:13.900Z,3.03
2022-12-01T23:11:44.699Z,3.40
2022-12-01T23:14:22.373Z,3.07
2022-12-01T23:16:50.548Z,3.07
2022-12-01T23:19:17.980Z,5.10
2022-12-01T23:21:45.280Z,4.40
2022-12-01T23:24:18.467Z,4.33
2022-12-01T23:26:46.678Z,4.60
2022-12-01T23:29:14.314Z,5.03
2022-12-01T23:31:42.005Z,5.30
2022-12-01T23:34:14.277Z,5.00
2022-12-01T23:36:42.459Z,4.30
2022-12-01T23:39:13.853Z,5.93
2022-12-01T23:41:51.293Z,4.97
2022-12-01T23:44:18.743Z,3.77
2022-12-01T23:46:47.119Z,4.97
2022-12-01T23:49:20.253Z,3.93
2022-12-01T23:51:48.544Z,5.27
2022-12-01T23:54:24.623Z,4.87
2022-12-01T23:56:56.279Z,6.53
2022-12-01T23:59:24.217Z,5.27
